sensor_id;sensor_type;location;lat;lon;timestamp;temperature;humidity
3705;DHT22;1868;48.918;9.438;2024-01-07T00:00:05;5.80;97.40
3705;DHT22;1868;48.918;9.438;2024-01-07T00:02:35;5.80;97.40
3705;DHT22;1868;48.918;9.438;2024-01-07T00:05:05;5.80;97.40
3705;DHT22;1868;48.918;9.438;2024-01-07T00:07:35;5.80;97.40
3705;DHT22;1868;48.918;9.438;2024-01-07T00:10:05;5.80;97.40
3705;DHT22;1868;48.918;9.438;2024-01-07T00:12:34;5.80;97.40
3705;DHT22;1868;48.918;9.438;2024-01-07T00:15:03;5.70;97.40
3705;DHT22;1868;48.918;9.438;2024-01-07T00:17:32;5.70;97.40
3705;DHT22;1868;48.918;9.438;2024-01-07T00:20:02;5.70;97.40
3705;DHT22;1868;48.918;9.438;2024-01-07T00:22:31;5.70;97.40
3705;DHT22;1868;48.918;9.438;2024-01-07T00:25:01;5.70;97.40
3705;DHT22;1868;48.918;9.438;2024-01-07T00:27:30;5.70;97.40
3705;DHT22;1868;48.918;9.438;2024-01-07T00:29:59;5.60;97.40
3705;DHT22;1868;48.918;9.438;2024-01-07T00:32:28;5.60;97.40
3705;DHT22;1868;48.918;9.438;2024-01-07T00:34:56;5.70;97.40
3705;DHT22;1868;48.918;9.438;2024-01-07T00:37:25;5.70;97.40
3705;DHT22;1868;48.918;9.438;2024-01-07T00:39:54;5.70;97.40
3705;DHT22;1868;48.918;9.438;2024-01-07T00:42:24;5.70;97.40
3705;DHT22;1868;48.918;9.438;2024-01-07T00:44:52;5.70;97.40
3705;DHT22;1868;48.918;9.438;2024-01-07T00:47:21;5.80;97.40
3705;DHT22;1868;48.918;9.438;2024-01-07T00:49:50;5.80;97.40
3705;DHT22;1868;48.918;9.438;2024-01-07T00:52:19;5.80;97.40
3705;DHT22;1868;48.918;9.438;2024-01-07T00:54:48;5.80;97.40
3705;DHT22;1868;48.918;9.438;2024-01-07T00:57:17;5.80;97.40
3705;DHT22;1868;48.918;9.438;2024-01-07T00:59:48;5.80;97.40
3705;DHT22;1868;48.918;9.438;2024-01-07T01:02:17;5.80;97.40
3705;DHT22;1868;48.918;9.438;2024-01-07T01:04:47;5.80;97.40
3705;DHT22;1868;48.918;9.438;2024-01-07T01:07:16;5.80;97.40
3705;DHT22;1868;48.918;9.438;2024-01-07T01:09:44;5.70;97.40
3705;DHT22;1868;48.918;9.438;2024-01-07T01:12:13;5.70;97.40
3705;DHT22;1868;48.918;9.438;2024-01-07T01:14:43;5.80;97.40
3705;DHT22;1868;48.918;9.438;2024-01-07T01:17:13;5.80;97.40
3705;DHT22;1868;48.918;9.438;2024-01-07T01:19:42;5.80;97.40
3705;DHT22;1868;48.918;9.438;2024-01-07T01:22:11;5.90;97.40
3705;DHT22;1868;48.918;9.438;2024-01-07T01:24:40;5.90;97.40
3705;DHT22;1868;48.918;9.438;2024-01-07T01:27:09;5.90;97.40
3705;DHT22;1868;48.918;9.438;2024-01-07T01:29:38;5.90;97.40
3705;DHT22;1868;48.918;9.438;2024-01-07T01:32:07;6.00;97.40
3705;DHT22;1868;48.918;9.438;2024-01-07T01:34:37;6.00;97.40
3705;DHT22;1868;48.918;9.438;2024-01-07T01:37:07;6.00;97.40
3705;DHT22;1868;48.918;9.438;2024-01-07T01:39:38;6.00;97.40
3705;DHT22;1868;48.918;9.438;2024-01-07T01:42:07;6.10;97.40
3705;DHT22;1868;48.918;9.438;2024-01-07T01:44:36;6.10;97.40
3705;DHT22;1868;48.918;9.438;2024-01-07T01:47:05;6.10;97.40
3705;DHT22;1868;48.918;9.438;2024-01-07T01:49:34;6.10;97.40
3705;DHT22;1868;48.918;9.438;2024-01-07T01:52:07;6.10;97.40
3705;DHT22;1868;48.918;9.438;2024-01-07T01:54:36;6.10;97.40
3705;DHT22;1868;48.918;9.438;2024-01-07T01:57:05;6.10;97.40
3705;DHT22;1868;48.918;9.438;2024-01-07T01:59:34;6.00;97.40
3705;DHT22;1868;48.918;9.438;2024-01-07T02:02:03;6.00;97.40
3705;DHT22;1868;48.918;9.438;2024-01-07T02:04:32;6.10;97.40
3705;DHT22;1868;48.918;9.438;2024-01-07T02:07:00;6.10;97.40
3705;DHT22;1868;48.918;9.438;2024-01-07T02:09:31;6.00;97.40
3705;DHT22;1868;48.918;9.438;2024-01-07T02:12:01;6.00;97.40
3705;DHT22;1868;48.918;9.438;2024-01-07T02:14:30;6.00;97.40
3705;DHT22;1868;48.918;9.438;2024-01-07T02:16:59;6.00;97.40
3705;DHT22;1868;48.918;9.438;2024-01-07T02:19:28;6.00;97.40
3705;DHT22;1868;48.918;9.438;2024-01-07T02:21:57;6.00;97.40
3705;DHT22;1868;48.918;9.438;2024-01-07T02:24:28;6.00;97.40
3705;DHT22;1868;48.918;9.438;2024-01-07T02:26:57;6.00;97.40
3705;DHT22;1868;48.918;9.438;2024-01-07T02:29:29;5.90;97.40
3705;DHT22;1868;48.918;9.438;2024-01-07T02:31:57;5.90;97.40
3705;DHT22;1868;48.918;9.438;2024-01-07T02:34:26;5.90;97.40
3705;DHT22;1868;48.918;9.438;2024-01-07T02:36:54;5.90;97.40
3705;DHT22;1868;48.918;9.438;2024-01-07T02:39:23;5.90;97.40
3705;DHT22;1868;48.918;9.438;2024-01-07T02:41:53;5.90;97.40
3705;DHT22;1868;48.918;9.438;2024-01-07T02:44:22;5.90;97.40
3705;DHT22;1868;48.918;9.438;2024-01-07T02:46:51;5.80;97.40
3705;DHT22;1868;48.918;9.438;2024-01-07T02:49:19;5.80;97.40
3705;DHT22;1868;48.918;9.438;2024-01-07T02:51:48;5.90;97.40
3705;DHT22;1868;48.918;9.438;2024-01-07T02:54:17;5.80;97.40
3705;DHT22;1868;48.918;9.438;2024-01-07T02:56:48;5.80;97.40
3705;DHT22;1868;48.918;9.438;2024-01-07T02:59:18;5.80;97.40
3705;DHT22;1868;48.918;9.438;2024-01-07T03:01:47;5.80;97.40
3705;DHT22;1868;48.918;9.438;2024-01-07T03:04:16;5.80;97.40
3705;DHT22;1868;48.918;9.438;2024-01-07T03:06:45;5.80;97.40
3705;DHT22;1868;48.918;9.438;2024-01-07T03:09:14;5.80;97.40
3705;DHT22;1868;48.918;9.438;2024-01-07T03:11:47;5.70;97.40
3705;DHT22;1868;48.918;9.438;2024-01-07T03:14:16;5.70;97.40
3705;DHT22;1868;48.918;9.438;2024-01-07T03:16:48;5.70;97.40
3705;DHT22;1868;48.918;9.438;2024-01-07T03:19:17;5.70;97.40
3705;DHT22;1868;48.918;9.438;2024-01-07T03:21:46;5.60;97.40
3705;DHT22;1868;48.918;9.438;2024-01-07T03:24:16;5.50;97.40
3705;DHT22;1868;48.918;9.438;2024-01-07T03:26:44;5.50;97.40
3705;DHT22;1868;48.918;9.438;2024-01-07T03:29:13;5.50;97.40
3705;DHT22;1868;48.918;9.438;2024-01-07T03:31:44;5.50;97.40
3705;DHT22;1868;48.918;9.438;2024-01-07T03:34:13;5.50;97.40
3705;DHT22;1868;48.918;9.438;2024-01-07T03:36:42;5.50;97.40
3705;DHT22;1868;48.918;9.438;2024-01-07T03:39:09;5.60;97.40
3705;DHT22;1868;48.918;9.438;2024-01-07T03:41:38;5.60;97.40
3705;DHT22;1868;48.918;9.438;2024-01-07T03:44:07;5.60;97.40
3705;DHT22;1868;48.918;9.438;2024-01-07T03:46:35;5.70;97.40
3705;DHT22;1868;48.918;9.438;2024-01-07T03:49:05;5.70;97.40
3705;DHT22;1868;48.918;9.438;2024-01-07T03:51:34;5.70;97.40
3705;DHT22;1868;48.918;9.438;2024-01-07T03:54:04;5.70;97.40
3705;DHT22;1868;48.918;9.438;2024-01-07T03:56:33;5.80;97.40
3705;DHT22;1868;48.918;9.438;2024-01-07T03:59:02;5.80;97.40
3705;DHT22;1868;48.918;9.438;2024-01-07T04:01:31;5.80;97.40
3705;DHT22;1868;48.918;9.438;2024-01-07T04:04:00;5.80;97.40
3705;DHT22;1868;48.918;9.438;2024-01-07T04:06:30;5.80;97.40
3705;DHT22;1868;48.918;9.438;2024-01-07T04:08:59;5.80;97.40
3705;DHT22;1868;48.918;9.438;2024-01-07T04:11:27;5.80;97.40
3705;DHT22;1868;48.918;9.438;2024-01-07T04:13:56;5.80;97.40
3705;DHT22;1868;48.918;9.438;2024-01-07T04:16:25;5.80;97.40
3705;DHT22;1868;48.918;9.438;2024-01-07T04:18:55;5.80;97.40
3705;DHT22;1868;48.918;9.438;2024-01-07T04:21:23;5.80;97.40
3705;DHT22;1868;48.918;9.438;2024-01-07T04:23:53;5.80;97.40
3705;DHT22;1868;48.918;9.438;2024-01-07T04:26:22;5.80;97.40
3705;DHT22;1868;48.918;9.438;2024-01-07T04:28:50;5.80;97.40
3705;DHT22;1868;48.918;9.438;2024-01-07T04:31:19;5.70;97.40
3705;DHT22;1868;48.918;9.438;2024-01-07T04:33:47;5.70;97.40
3705;DHT22;1868;48.918;9.438;2024-01-07T04:36:16;5.70;97.40
3705;DHT22;1868;48.918;9.438;2024-01-07T04:38:45;5.70;97.40
3705;DHT22;1868;48.918;9.438;2024-01-07T04:41:15;5.70;97.40
3705;DHT22;1868;48.918;9.438;2024-01-07T04:43:45;5.70;97.40
3705;DHT22;1868;48.918;9.438;2024-01-07T04:46:14;5.80;97.40
3705;DHT22;1868;48.918;9.438;2024-01-07T04:48:43;5.80;97.40
3705;DHT22;1868;48.918;9.438;2024-01-07T04:51:11;5.80;97.40
3705;DHT22;1868;48.918;9.438;2024-01-07T04:53:40;5.80;97.40
3705;DHT22;1868;48.918;9.438;2024-01-07T04:56:09;5.70;97.40
3705;DHT22;1868;48.918;9.438;2024-01-07T04:58:40;5.80;97.40
3705;DHT22;1868;48.918;9.438;2024-01-07T05:01:08;5.80;97.40
3705;DHT22;1868;48.918;9.438;2024-01-07T05:03:37;5.80;97.40
3705;DHT22;1868;48.918;9.438;2024-01-07T05:06:08;5.70;97.40
3705;DHT22;1868;48.918;9.438;2024-01-07T05:08:37;5.80;97.40
3705;DHT22;1868;48.918;9.438;2024-01-07T05:11:06;5.80;97.40
3705;DHT22;1868;48.918;9.438;2024-01-07T05:13:35;5.80;97.40
3705;DHT22;1868;48.918;9.438;2024-01-07T05:16:06;5.80;97.40
3705;DHT22;1868;48.918;9.438;2024-01-07T05:18:35;5.90;97.40
3705;DHT22;1868;48.918;9.438;2024-01-07T05:21:05;5.80;97.40
3705;DHT22;1868;48.918;9.438;2024-01-07T05:23:34;5.90;97.40
3705;DHT22;1868;48.918;9.438;2024-01-07T05:26:03;5.90;97.40
3705;DHT22;1868;48.918;9.438;2024-01-07T05:28:31;5.90;97.40
3705;DHT22;1868;48.918;9.438;2024-01-07T05:31:00;5.90;97.40
3705;DHT22;1868;48.918;9.438;2024-01-07T05:33:30;5.90;97.40
3705;DHT22;1868;48.918;9.438;2024-01-07T05:35:59;5.90;97.40
3705;DHT22;1868;48.918;9.438;2024-01-07T05:38:28;5.90;97.40
3705;DHT22;1868;48.918;9.438;2024-01-07T05:40:59;5.90;97.40
3705;DHT22;1868;48.918;9.438;2024-01-07T05:43:27;5.90;97.40
3705;DHT22;1868;48.918;9.438;2024-01-07T05:45:56;5.90;97.40
3705;DHT22;1868;48.918;9.438;2024-01-07T05:48:25;5.90;97.40
3705;DHT22;1868;48.918;9.438;2024-01-07T05:50:55;5.90;97.40
3705;DHT22;1868;48.918;9.438;2024-01-07T05:53:24;5.90;97.40
3705;DHT22;1868;48.918;9.438;2024-01-07T05:55:53;5.90;97.40
3705;DHT22;1868;48.918;9.438;2024-01-07T05:58:21;5.90;97.40
3705;DHT22;1868;48.918;9.438;2024-01-07T06:00:51;5.90;97.40
3705;DHT22;1868;48.918;9.438;2024-01-07T06:03:20;5.80;97.40
3705;DHT22;1868;48.918;9.438;2024-01-07T06:05:49;5.80;97.40
3705;DHT22;1868;48.918;9.438;2024-01-07T06:08:19;5.80;97.40
3705;DHT22;1868;48.918;9.438;2024-01-07T06:10:47;5.80;97.40
3705;DHT22;1868;48.918;9.438;2024-01-07T06:13:16;5.80;97.40
3705;DHT22;1868;48.918;9.438;2024-01-07T06:15:45;5.80;97.40
3705;DHT22;1868;48.918;9.438;2024-01-07T06:18:14;5.80;97.40
3705;DHT22;1868;48.918;9.438;2024-01-07T06:20:42;5.90;97.40
3705;DHT22;1868;48.918;9.438;2024-01-07T06:23:11;5.80;97.40
3705;DHT22;1868;48.918;9.438;2024-01-07T06:25:41;5.80;97.40
3705;DHT22;1868;48.918;9.438;2024-01-07T06:28:10;5.80;97.40
3705;DHT22;1868;48.918;9.438;2024-01-07T06:30:39;5.80;97.40
3705;DHT22;1868;48.918;9.438;2024-01-07T06:33:08;5.80;97.40
3705;DHT22;1868;48.918;9.438;2024-01-07T06:35:37;5.80;97.40
3705;DHT22;1868;48.918;9.438;2024-01-07T06:38:05;5.90;97.40
3705;DHT22;1868;48.918;9.438;2024-01-07T06:40:34;5.90;97.40
3705;DHT22;1868;48.918;9.438;2024-01-07T06:43:04;5.80;97.40
3705;DHT22;1868;48.918;9.438;2024-01-07T06:45:33;5.90;97.40
3705;DHT22;1868;48.918;9.438;2024-01-07T06:48:02;5.90;97.40
3705;DHT22;1868;48.918;9.438;2024-01-07T06:50:31;5.80;97.40
3705;DHT22;1868;48.918;9.438;2024-01-07T06:53:00;5.80;97.40
3705;DHT22;1868;48.918;9.438;2024-01-07T06:55:28;5.70;97.40
3705;DHT22;1868;48.918;9.438;2024-01-07T06:57:57;5.70;97.40
3705;DHT22;1868;48.918;9.438;2024-01-07T07:00:27;5.60;97.40
3705;DHT22;1868;48.918;9.438;2024-01-07T07:02:56;5.60;97.40
3705;DHT22;1868;48.918;9.438;2024-01-07T07:05:25;5.60;97.40
3705;DHT22;1868;48.918;9.438;2024-01-07T07:07:54;5.70;97.40
3705;DHT22;1868;48.918;9.438;2024-01-07T07:10:23;5.60;97.40
3705;DHT22;1868;48.918;9.438;2024-01-07T07:12:52;5.60;97.40
3705;DHT22;1868;48.918;9.438;2024-01-07T07:15:20;5.60;97.40
3705;DHT22;1868;48.918;9.438;2024-01-07T07:17:51;5.60;97.40
3705;DHT22;1868;48.918;9.438;2024-01-07T07:20:19;5.60;97.40
3705;DHT22;1868;48.918;9.438;2024-01-07T07:22:48;5.60;97.40
3705;DHT22;1868;48.918;9.438;2024-01-07T07:25:17;5.60;97.40
3705;DHT22;1868;48.918;9.438;2024-01-07T07:27:46;5.50;97.40
3705;DHT22;1868;48.918;9.438;2024-01-07T07:30:16;5.60;97.40
3705;DHT22;1868;48.918;9.438;2024-01-07T07:32:44;5.60;97.40
3705;DHT22;1868;48.918;9.438;2024-01-07T07:35:15;5.60;97.40
3705;DHT22;1868;48.918;9.438;2024-01-07T07:37:44;5.60;97.40
3705;DHT22;1868;48.918;9.438;2024-01-07T07:40:13;5.70;97.40
3705;DHT22;1868;48.918;9.438;2024-01-07T07:42:42;5.60;97.40
3705;DHT22;1868;48.918;9.438;2024-01-07T07:45:11;5.60;97.40
3705;DHT22;1868;48.918;9.438;2024-01-07T07:47:39;5.60;97.40
3705;DHT22;1868;48.918;9.438;2024-01-07T07:50:11;5.60;97.40
3705;DHT22;1868;48.918;9.438;2024-01-07T07:52:43;5.50;97.40
3705;DHT22;1868;48.918;9.438;2024-01-07T07:55:12;5.50;97.40
3705;DHT22;1868;48.918;9.438;2024-01-07T07:57:40;5.50;97.40
3705;DHT22;1868;48.918;9.438;2024-01-07T08:00:09;5.50;97.40
3705;DHT22;1868;48.918;9.438;2024-01-07T08:02:39;5.50;97.40
3705;DHT22;1868;48.918;9.438;2024-01-07T08:05:08;5.50;97.40
3705;DHT22;1868;48.918;9.438;2024-01-07T08:07:37;5.50;97.40
3705;DHT22;1868;48.918;9.438;2024-01-07T08:10:09;5.40;97.40
3705;DHT22;1868;48.918;9.438;2024-01-07T08:12:38;5.40;97.40
3705;DHT22;1868;48.918;9.438;2024-01-07T08:15:09;5.40;97.40
3705;DHT22;1868;48.918;9.438;2024-01-07T08:17:39;5.40;97.40
3705;DHT22;1868;48.918;9.438;2024-01-07T08:20:08;5.40;97.40
3705;DHT22;1868;48.918;9.438;2024-01-07T08:22:38;5.30;97.40
3705;DHT22;1868;48.918;9.438;2024-01-07T08:25:09;5.30;97.40
3705;DHT22;1868;48.918;9.438;2024-01-07T08:27:41;5.30;97.40
3705;DHT22;1868;48.918;9.438;2024-01-07T08:30:11;5.30;97.40
3705;DHT22;1868;48.918;9.438;2024-01-07T08:32:41;5.30;97.40
3705;DHT22;1868;48.918;9.438;2024-01-07T08:35:10;5.30;97.40
3705;DHT22;1868;48.918;9.438;2024-01-07T08:37:41;5.30;97.40
3705;DHT22;1868;48.918;9.438;2024-01-07T08:40:14;5.40;97.40
3705;DHT22;1868;48.918;9.438;2024-01-07T08:42:44;5.40;97.40
3705;DHT22;1868;48.918;9.438;2024-01-07T08:45:13;5.30;97.40
3705;DHT22;1868;48.918;9.438;2024-01-07T08:47:42;5.30;97.40
3705;DHT22;1868;48.918;9.438;2024-01-07T08:50:11;5.40;97.40
3705;DHT22;1868;48.918;9.438;2024-01-07T08:52:40;5.30;97.40
3705;DHT22;1868;48.918;9.438;2024-01-07T08:55:09;5.30;97.40
3705;DHT22;1868;48.918;9.438;2024-01-07T08:57:40;5.20;97.40
3705;DHT22;1868;48.918;9.438;2024-01-07T09:00:10;5.20;97.40
3705;DHT22;1868;48.918;9.438;2024-01-07T09:02:38;5.20;97.40
3705;DHT22;1868;48.918;9.438;2024-01-07T09:05:10;5.20;97.40
3705;DHT22;1868;48.918;9.438;2024-01-07T09:07:40;5.30;97.40
3705;DHT22;1868;48.918;9.438;2024-01-07T09:10:09;5.30;97.40
3705;DHT22;1868;48.918;9.438;2024-01-07T09:12:41;5.30;97.40
3705;DHT22;1868;48.918;9.438;2024-01-07T09:15:10;5.20;97.40
3705;DHT22;1868;48.918;9.438;2024-01-07T09:17:38;5.30;97.40
3705;DHT22;1868;48.918;9.438;2024-01-07T09:20:08;5.20;97.40
3705;DHT22;1868;48.918;9.438;2024-01-07T09:22:38;5.20;97.40
3705;DHT22;1868;48.918;9.438;2024-01-07T09:25:08;5.20;97.40
3705;DHT22;1868;48.918;9.438;2024-01-07T09:27:38;5.20;97.40
3705;DHT22;1868;48.918;9.438;2024-01-07T09:30:10;5.10;97.40
3705;DHT22;1868;48.918;9.438;2024-01-07T09:32:41;5.10;97.40
3705;DHT22;1868;48.918;9.438;2024-01-07T09:35:10;5.10;97.40
3705;DHT22;1868;48.918;9.438;2024-01-07T09:37:39;5.20;97.40
3705;DHT22;1868;48.918;9.438;2024-01-07T09:40:08;5.10;97.40
3705;DHT22;1868;48.918;9.438;2024-01-07T09:42:38;5.00;97.40
3705;DHT22;1868;48.918;9.438;2024-01-07T09:45:12;5.00;97.40
3705;DHT22;1868;48.918;9.438;2024-01-07T09:47:42;5.00;97.40
3705;DHT22;1868;48.918;9.438;2024-01-07T09:50:14;4.90;97.40
3705;DHT22;1868;48.918;9.438;2024-01-07T09:52:54;5.00;97.40
3705;DHT22;1868;48.918;9.438;2024-01-07T09:55:33;4.90;97.40
3705;DHT22;1868;48.918;9.438;2024-01-07T09:58:09;4.80;97.40
3705;DHT22;1868;48.918;9.438;2024-01-07T10:00:41;4.70;97.40
3705;DHT22;1868;48.918;9.438;2024-01-07T10:03:10;4.70;97.40
3705;DHT22;1868;48.918;9.438;2024-01-07T10:05:39;4.70;97.40
3705;DHT22;1868;48.918;9.438;2024-01-07T10:08:07;4.70;97.40
3705;DHT22;1868;48.918;9.438;2024-01-07T10:10:36;4.70;97.40
3705;DHT22;1868;48.918;9.438;2024-01-07T10:13:08;4.70;97.40
3705;DHT22;1868;48.918;9.438;2024-01-07T10:15:37;4.80;97.40
3705;DHT22;1868;48.918;9.438;2024-01-07T10:18:08;4.80;97.40
3705;DHT22;1868;48.918;9.438;2024-01-07T10:20:37;4.90;97.40
3705;DHT22;1868;48.918;9.438;2024-01-07T10:23:11;4.90;97.40
3705;DHT22;1868;48.918;9.438;2024-01-07T10:25:40;4.80;97.40
3705;DHT22;1868;48.918;9.438;2024-01-07T10:28:09;4.80;97.40
3705;DHT22;1868;48.918;9.438;2024-01-07T10:30:38;4.80;97.40
3705;DHT22;1868;48.918;9.438;2024-01-07T10:33:09;4.90;97.40
3705;DHT22;1868;48.918;9.438;2024-01-07T10:35:39;4.80;97.40
3705;DHT22;1868;48.918;9.438;2024-01-07T10:38:10;4.90;97.40
3705;DHT22;1868;48.918;9.438;2024-01-07T10:40:40;4.80;97.40
3705;DHT22;1868;48.918;9.438;2024-01-07T10:43:09;4.80;97.40
3705;DHT22;1868;48.918;9.438;2024-01-07T10:45:38;4.80;97.40
3705;DHT22;1868;48.918;9.438;2024-01-07T10:48:09;4.90;97.40
3705;DHT22;1868;48.918;9.438;2024-01-07T10:50:39;4.90;97.40
3705;DHT22;1868;48.918;9.438;2024-01-07T10:53:10;4.90;97.40
3705;DHT22;1868;48.918;9.438;2024-01-07T10:56:00;4.90;97.40
3705;DHT22;1868;48.918;9.438;2024-01-07T10:58:32;4.90;97.40
3705;DHT22;1868;48.918;9.438;2024-01-07T11:01:04;4.90;97.40
3705;DHT22;1868;48.918;9.438;2024-01-07T11:03:43;4.90;97.40
3705;DHT22;1868;48.918;9.438;2024-01-07T11:06:22;4.90;97.40
3705;DHT22;1868;48.918;9.438;2024-01-07T11:08:59;4.90;97.40
3705;DHT22;1868;48.918;9.438;2024-01-07T11:11:36;4.90;97.40
3705;DHT22;1868;48.918;9.438;2024-01-07T11:14:33;4.90;97.40
3705;DHT22;1868;48.918;9.438;2024-01-07T11:17:03;4.90;97.40
3705;DHT22;1868;48.918;9.438;2024-01-07T11:19:35;4.90;97.40
3705;DHT22;1868;48.918;9.438;2024-01-07T11:22:21;4.90;97.40
3705;DHT22;1868;48.918;9.438;2024-01-07T11:24:56;4.90;97.40
3705;DHT22;1868;48.918;9.438;2024-01-07T11:27:27;4.80;97.40
3705;DHT22;1868;48.918;9.438;2024-01-07T11:30:01;4.80;97.40
3705;DHT22;1868;48.918;9.438;2024-01-07T11:32:33;4.80;97.40
3705;DHT22;1868;48.918;9.438;2024-01-07T11:35:04;4.70;97.40
3705;DHT22;1868;48.918;9.438;2024-01-07T11:37:34;4.60;97.40
3705;DHT22;1868;48.918;9.438;2024-01-07T11:40:06;4.80;97.40
3705;DHT22;1868;48.918;9.438;2024-01-07T11:42:37;4.80;97.40
3705;DHT22;1868;48.918;9.438;2024-01-07T11:45:06;4.60;97.40
3705;DHT22;1868;48.918;9.438;2024-01-07T11:47:37;4.60;97.40
3705;DHT22;1868;48.918;9.438;2024-01-07T11:50:08;4.60;97.40
3705;DHT22;1868;48.918;9.438;2024-01-07T11:52:37;4.60;97.40
3705;DHT22;1868;48.918;9.438;2024-01-07T11:55:06;4.60;97.40
3705;DHT22;1868;48.918;9.438;2024-01-07T11:57:36;4.60;97.40
3705;DHT22;1868;48.918;9.438;2024-01-07T12:00:06;4.60;97.40
3705;DHT22;1868;48.918;9.438;2024-01-07T12:02:37;4.50;97.40
3705;DHT22;1868;48.918;9.438;2024-01-07T12:05:08;4.50;97.40
3705;DHT22;1868;48.918;9.438;2024-01-07T12:07:37;4.50;97.40
3705;DHT22;1868;48.918;9.438;2024-01-07T12:10:08;4.50;97.40
3705;DHT22;1868;48.918;9.438;2024-01-07T12:12:39;4.50;97.40
3705;DHT22;1868;48.918;9.438;2024-01-07T12:15:09;4.40;97.40
3705;DHT22;1868;48.918;9.438;2024-01-07T12:17:39;4.40;97.40
3705;DHT22;1868;48.918;9.438;2024-01-07T12:20:11;4.30;97.40
3705;DHT22;1868;48.918;9.438;2024-01-07T12:22:39;4.40;97.40
3705;DHT22;1868;48.918;9.438;2024-01-07T12:25:08;4.40;97.40
3705;DHT22;1868;48.918;9.438;2024-01-07T12:27:37;4.40;97.40
3705;DHT22;1868;48.918;9.438;2024-01-07T12:30:09;4.40;97.40
3705;DHT22;1868;48.918;9.438;2024-01-07T12:32:38;4.40;97.40
3705;DHT22;1868;48.918;9.438;2024-01-07T12:35:09;4.30;97.40
3705;DHT22;1868;48.918;9.438;2024-01-07T12:37:38;4.30;97.40
3705;DHT22;1868;48.918;9.438;2024-01-07T12:40:08;4.20;97.40
3705;DHT22;1868;48.918;9.438;2024-01-07T12:42:38;4.10;97.40
3705;DHT22;1868;48.918;9.438;2024-01-07T12:45:13;4.10;97.40
3705;DHT22;1868;48.918;9.438;2024-01-07T12:47:43;4.00;97.40
3705;DHT22;1868;48.918;9.438;2024-01-07T12:50:14;4.00;97.40
3705;DHT22;1868;48.918;9.438;2024-01-07T12:52:43;4.00;97.40
3705;DHT22;1868;48.918;9.438;2024-01-07T12:55:12;4.00;97.40
3705;DHT22;1868;48.918;9.438;2024-01-07T12:57:41;4.00;97.40
3705;DHT22;1868;48.918;9.438;2024-01-07T13:00:11;4.00;97.40
3705;DHT22;1868;48.918;9.438;2024-01-07T13:02:40;4.00;97.40
3705;DHT22;1868;48.918;9.438;2024-01-07T13:05:09;4.00;97.40
3705;DHT22;1868;48.918;9.438;2024-01-07T13:07:39;3.90;97.40
3705;DHT22;1868;48.918;9.438;2024-01-07T13:10:08;3.90;97.40
3705;DHT22;1868;48.918;9.438;2024-01-07T13:12:38;3.80;97.40
3705;DHT22;1868;48.918;9.438;2024-01-07T13:15:16;3.90;97.40
3705;DHT22;1868;48.918;9.438;2024-01-07T13:17:45;3.90;97.40
3705;DHT22;1868;48.918;9.438;2024-01-07T13:20:13;3.80;97.40
3705;DHT22;1868;48.918;9.438;2024-01-07T13:22:44;3.80;97.40
3705;DHT22;1868;48.918;9.438;2024-01-07T13:25:13;3.80;97.40
3705;DHT22;1868;48.918;9.438;2024-01-07T13:27:42;3.70;97.40
3705;DHT22;1868;48.918;9.438;2024-01-07T13:30:11;3.70;97.40
3705;DHT22;1868;48.918;9.438;2024-01-07T13:32:40;3.70;97.40
3705;DHT22;1868;48.918;9.438;2024-01-07T13:35:09;3.60;97.40
3705;DHT22;1868;48.918;9.438;2024-01-07T13:37:40;3.70;97.40
3705;DHT22;1868;48.918;9.438;2024-01-07T13:40:12;3.70;97.40
3705;DHT22;1868;48.918;9.438;2024-01-07T13:42:42;3.60;97.40
3705;DHT22;1868;48.918;9.438;2024-01-07T13:45:11;3.60;97.40
3705;DHT22;1868;48.918;9.438;2024-01-07T13:47:40;3.50;97.40
3705;DHT22;1868;48.918;9.438;2024-01-07T13:50:10;3.50;97.40
3705;DHT22;1868;48.918;9.438;2024-01-07T13:52:38;3.40;97.40
3705;DHT22;1868;48.918;9.438;2024-01-07T13:55:08;3.40;97.40
3705;DHT22;1868;48.918;9.438;2024-01-07T13:57:39;3.40;97.40
3705;DHT22;1868;48.918;9.438;2024-01-07T14:00:10;3.30;97.40
3705;DHT22;1868;48.918;9.438;2024-01-07T14:02:46;3.30;97.40
3705;DHT22;1868;48.918;9.438;2024-01-07T14:05:16;3.30;97.40
3705;DHT22;1868;48.918;9.438;2024-01-07T14:07:46;3.30;97.40
3705;DHT22;1868;48.918;9.438;2024-01-07T14:10:16;3.20;97.40
3705;DHT22;1868;48.918;9.438;2024-01-07T14:12:48;3.20;97.40
3705;DHT22;1868;48.918;9.438;2024-01-07T14:15:17;3.20;97.40
3705;DHT22;1868;48.918;9.438;2024-01-07T14:17:46;3.20;97.40
3705;DHT22;1868;48.918;9.438;2024-01-07T14:20:15;3.20;97.40
3705;DHT22;1868;48.918;9.438;2024-01-07T14:22:44;3.10;97.40
3705;DHT22;1868;48.918;9.438;2024-01-07T14:25:13;3.20;97.40
3705;DHT22;1868;48.918;9.438;2024-01-07T14:27:42;3.20;97.40
3705;DHT22;1868;48.918;9.438;2024-01-07T14:30:13;3.10;97.40
3705;DHT22;1868;48.918;9.438;2024-01-07T14:32:42;3.10;97.40
3705;DHT22;1868;48.918;9.438;2024-01-07T14:35:12;3.10;97.40
3705;DHT22;1868;48.918;9.438;2024-01-07T14:37:41;3.10;97.40
3705;DHT22;1868;48.918;9.438;2024-01-07T14:40:10;3.10;97.40
3705;DHT22;1868;48.918;9.438;2024-01-07T14:42:39;3.00;97.40
3705;DHT22;1868;48.918;9.438;2024-01-07T14:45:08;3.00;97.40
3705;DHT22;1868;48.918;9.438;2024-01-07T14:47:39;3.00;97.40
3705;DHT22;1868;48.918;9.438;2024-01-07T14:50:11;3.00;97.40
3705;DHT22;1868;48.918;9.438;2024-01-07T14:52:40;2.90;97.40
3705;DHT22;1868;48.918;9.438;2024-01-07T14:55:09;2.90;97.40
3705;DHT22;1868;48.918;9.438;2024-01-07T14:57:38;2.80;97.40
3705;DHT22;1868;48.918;9.438;2024-01-07T15:00:07;2.80;97.40
3705;DHT22;1868;48.918;9.438;2024-01-07T15:02:38;2.80;97.40
3705;DHT22;1868;48.918;9.438;2024-01-07T15:05:08;2.80;97.40
3705;DHT22;1868;48.918;9.438;2024-01-07T15:07:37;2.80;97.40
3705;DHT22;1868;48.918;9.438;2024-01-07T15:10:06;2.70;97.40
3705;DHT22;1868;48.918;9.438;2024-01-07T15:12:36;2.70;97.40
3705;DHT22;1868;48.918;9.438;2024-01-07T15:15:12;2.70;97.40
3705;DHT22;1868;48.918;9.438;2024-01-07T15:17:43;2.80;97.40
3705;DHT22;1868;48.918;9.438;2024-01-07T15:20:11;2.80;97.40
3705;DHT22;1868;48.918;9.438;2024-01-07T15:22:40;2.80;97.40
3705;DHT22;1868;48.918;9.438;2024-01-07T15:25:09;2.90;97.40
3705;DHT22;1868;48.918;9.438;2024-01-07T15:27:38;2.80;97.40
3705;DHT22;1868;48.918;9.438;2024-01-07T15:30:08;2.80;97.40
3705;DHT22;1868;48.918;9.438;2024-01-07T15:32:38;2.80;97.40
3705;DHT22;1868;48.918;9.438;2024-01-07T15:35:08;2.80;97.40
3705;DHT22;1868;48.918;9.438;2024-01-07T15:37:37;2.80;97.40
3705;DHT22;1868;48.918;9.438;2024-01-07T15:40:06;2.80;97.40
3705;DHT22;1868;48.918;9.438;2024-01-07T15:42:37;2.80;97.40
3705;DHT22;1868;48.918;9.438;2024-01-07T15:45:07;2.70;97.40
3705;DHT22;1868;48.918;9.438;2024-01-07T15:47:36;2.70;97.40
3705;DHT22;1868;48.918;9.438;2024-01-07T15:50:09;2.70;97.40
3705;DHT22;1868;48.918;9.438;2024-01-07T15:52:38;2.70;97.40
3705;DHT22;1868;48.918;9.438;2024-01-07T15:55:07;2.60;97.40
3705;DHT22;1868;48.918;9.438;2024-01-07T15:57:36;2.60;97.40
3705;DHT22;1868;48.918;9.438;2024-01-07T16:00:07;2.60;97.40
3705;DHT22;1868;48.918;9.438;2024-01-07T16:02:36;2.60;97.40
3705;DHT22;1868;48.918;9.438;2024-01-07T16:05:05;2.50;97.40
3705;DHT22;1868;48.918;9.438;2024-01-07T16:07:36;2.50;97.40
3705;DHT22;1868;48.918;9.438;2024-01-07T16:10:05;2.40;97.40
3705;DHT22;1868;48.918;9.438;2024-01-07T16:12:34;2.40;97.40
3705;DHT22;1868;48.918;9.438;2024-01-07T16:15:03;2.30;97.40
3705;DHT22;1868;48.918;9.438;2024-01-07T16:17:35;2.30;97.40
3705;DHT22;1868;48.918;9.438;2024-01-07T16:20:07;2.20;97.40
3705;DHT22;1868;48.918;9.438;2024-01-07T16:22:40;2.20;97.40
3705;DHT22;1868;48.918;9.438;2024-01-07T16:25:09;2.20;97.40
3705;DHT22;1868;48.918;9.438;2024-01-07T16:27:37;2.20;97.40
3705;DHT22;1868;48.918;9.438;2024-01-07T16:30:07;2.20;97.40
3705;DHT22;1868;48.918;9.438;2024-01-07T16:32:36;2.10;97.40